Time;durP1;ratioP1;P1;durP2;ratioP2;P2;SDS_P1;SDS_P2;PMS_P1;PMS_P2;Temp;Humidity;BMP_temperature;BMP_pressure;BME280_temperature;BME280_humidity;BME280_pressure;Samples;Min_cycle;Max_cycle;Signal;HPM_P1;HPM_P2
2023/03/23 00:02:25;;;;;;;4.60;2.80;;;;;;;11.03;100.00;100275.66;5078191;28;20040;-52
2023/03/23 00:04:51;;;;;;;9.85;3.20;;;;;;;11.02;100.00;100286.78;5069997;28;20024;-50
2023/03/23 00:07:20;;;;;;;6.18;3.00;;;;;;;11.02;100.00;100294.50;5070647;28;20497;-49
2023/03/23 00:09:53;;;;;;;5.15;2.67;;;;;;;11.04;100.00;100292.81;5072270;28;20050;-52
2023/03/23 00:12:28;;;;;;;5.28;2.85;;;;;;;11.08;100.00;100288.59;5068739;28;20555;-49
2023/03/23 00:14:55;;;;;;;7.28;2.67;;;;;;;11.07;100.00;100280.00;5069649;28;20031;-51
2023/03/23 00:17:20;;;;;;;5.18;2.78;;;;;;;11.05;100.00;100273.13;5073807;28;20068;-51
2023/03/23 00:19:46;;;;;;;6.00;2.83;;;;;;;11.02;100.00;100274.78;5070093;28;20026;-50
2023/03/23 00:22:16;;;;;;;4.05;2.75;;;;;;;11.07;100.00;100295.44;5071358;28;20032;-47
2023/03/23 00:24:42;;;;;;;7.30;3.00;;;;;;;11.08;100.00;100294.59;5071405;28;20024;-44
2023/03/23 00:27:08;;;;;;;5.90;3.13;;;;;;;11.07;100.00;100292.88;5072446;28;20028;-47
2023/03/23 00:29:34;;;;;;;7.07;2.92;;;;;;;11.15;100.00;100291.28;5071582;28;20090;-45
2023/03/23 00:32:00;;;;;;;8.77;2.80;;;;;;;11.12;100.00;100283.53;5077505;28;20032;-46
2023/03/23 00:34:25;;;;;;;4.80;2.88;;;;;;;11.14;100.00;100299.84;5073178;28;20513;-45
2023/03/23 00:36:58;;;;;;;4.80;2.90;;;;;;;11.15;100.00;100293.84;5058938;28;20136;-48
2023/03/23 00:39:27;;;;;;;4.18;2.88;;;;;;;11.16;100.00;100307.59;5070495;28;20027;-44
2023/03/23 00:42:00;;;;;;;7.25;2.80;;;;;;;11.13;100.00;100297.25;5068753;28;20102;-47
2023/03/23 00:44:31;;;;;;;4.63;2.85;;;;;;;11.14;100.00;100297.28;5073109;28;20040;-47
2023/03/23 00:46:57;;;;;;;7.95;2.97;;;;;;;11.19;100.00;100295.66;5069491;28;20530;-48
2023/03/23 00:49:25;;;;;;;6.07;3.33;;;;;;;11.18;100.00;100283.63;5068939;28;20025;-48
2023/03/23 00:51:51;;;;;;;4.60;2.92;;;;;;;11.18;100.00;100301.66;5069447;28;20028;-45
2023/03/23 00:54:16;;;;;;;7.07;3.15;;;;;;;11.15;100.00;100288.72;5074857;28;20030;-46
2023/03/23 00:56:42;;;;;;;5.32;3.20;;;;;;;11.12;100.00;100267.22;5068883;28;20040;-44
2023/03/23 00:59:07;;;;;;;6.07;3.17;;;;;;;11.09;100.00;100259.44;5069370;28;20032;-44
2023/03/23 01:01:34;;;;;;;7.47;3.30;;;;;;;11.01;100.00;100241.31;5071451;28;20039;-44
2023/03/23 01:04:04;;;;;;;5.07;3.40;;;;;;;10.95;100.00;100236.94;5056918;28;20470;-45
2023/03/23 01:06:31;;;;;;;6.07;3.47;;;;;;;10.87;100.00;100227.38;5074959;28;20040;-44
2023/03/23 01:09:00;;;;;;;6.47;3.33;;;;;;;10.85;100.00;100231.59;5070800;28;20082;-45
2023/03/23 01:11:26;;;;;;;5.63;3.65;;;;;;;10.84;100.00;100223.03;5070557;28;20100;-45
2023/03/23 01:13:52;;;;;;;6.32;3.78;;;;;;;10.82;100.00;100240.16;5072421;28;20115;-45
2023/03/23 01:16:18;;;;;;;6.28;3.35;;;;;;;10.82;100.00;100249.56;5081446;28;20557;-44
2023/03/23 01:18:43;;;;;;;6.63;3.65;;;;;;;10.83;100.00;100221.31;5076444;28;20044;-45
2023/03/23 01:21:15;;;;;;;5.68;3.60;;;;;;;10.84;100.00;100211.88;5077569;28;20020;-43
2023/03/23 01:23:41;;;;;;;6.63;3.40;;;;;;;10.83;100.00;100215.28;5076109;28;20036;-45
2023/03/23 01:26:15;;;;;;;7.90;3.80;;;;;;;10.81;100.00;100217.84;5070712;28;20032;-47
2023/03/23 01:28:40;;;;;;;4.72;3.47;;;;;;;10.84;100.00;100211.88;5075118;28;20028;-45
2023/03/23 01:31:09;;;;;;;8.57;4.03;;;;;;;10.88;100.00;100204.25;5074839;28;20021;-44
2023/03/23 01:33:34;;;;;;;8.87;3.50;;;;;;;10.91;100.00;100211.13;5073079;28;20032;-45
2023/03/23 01:36:10;;;;;;;5.40;3.30;;;;;;;10.92;100.00;100208.63;5072282;28;20102;-44
2023/03/23 01:38:35;;;;;;;6.57;3.78;;;;;;;10.94;100.00;100206.06;5076068;28;20031;-47
2023/03/23 01:41:02;;;;;;;4.75;3.50;;;;;;;10.99;100.00;100196.72;5060970;28;20032;-46
2023/03/23 01:43:28;;;;;;;5.50;3.63;;;;;;;11.03;100.00;100208.75;5075828;28;20044;-45
2023/03/23 01:45:54;;;;;;;6.78;3.83;;;;;;;11.08;100.00;100201.13;5072475;28;20029;-44
2023/03/23 01:48:37;;;;;;;4.57;3.60;;;;;;;11.15;100.00;100208.09;5077784;28;20047;-50
2023/03/23 01:51:09;;;;;;;5.22;3.75;;;;;;;11.15;100.00;100208.09;5072176;28;20021;-49
2023/03/23 01:53:42;;;;;;;5.38;3.50;;;;;;;11.23;100.00;100206.50;5071744;28;20142;-50
2023/03/23 01:56:13;;;;;;;6.22;3.58;;;;;;;11.31;100.00;100202.34;5072969;28;20029;-48
2023/03/23 01:58:40;;;;;;;3.78;3.13;;;;;;;11.29;100.00;100193.72;5070547;28;20024;-50
2023/03/23 02:01:11;;;;;;;4.80;3.40;;;;;;;11.30;100.00;100192.03;5072344;28;20025;-49
2023/03/23 02:03:39;;;;;;;9.73;3.50;;;;;;;11.30;100.00;100192.03;5070307;28;20495;-44
2023/03/23 02:06:05;;;;;;;6.32;3.60;;;;;;;11.28;100.00;100180.00;5072527;28;20096;-48
2023/03/23 02:08:32;;;;;;;5.00;3.60;;;;;;;11.28;100.00;100177.44;5083140;28;20124;-44
2023/03/23 02:10:58;;;;;;;5.25;3.70;;;;;;;11.32;100.00;100182.59;5076310;28;20016;-45
2023/03/23 02:13:25;;;;;;;6.22;3.50;;;;;;;11.31;100.00;100175.72;5073471;28;20540;-47
2023/03/23 02:15:59;;;;;;;5.50;3.03;;;;;;;11.33;100.00;100171.47;5080007;28;20032;-45
2023/03/23 02:18:51;;;;;;;5.50;3.20;;;;;;;11.35;100.00;100159.50;5075209;28;20032;-43
2023/03/23 02:21:35;;;;;;;7.95;3.20;;;;;;;11.36;100.00;100161.22;5087492;28;20177;-43
2023/03/23 02:24:12;;;;;;;6.93;3.88;;;;;;;11.37;100.00;100160.38;5073276;28;20029;-44
2023/03/23 02:27:11;;;;;;;7.05;3.58;;;;;;;11.41;100.00;100157.00;5073079;28;20561;-43
2023/03/23 02:30:07;;;;;;;5.05;3.30;;;;;;;11.38;100.00;100167.25;5076957;28;20038;-49
2023/03/23 02:32:46;;;;;;;5.55;3.20;;;;;;;11.39;100.00;100167.25;5073650;28;20111;-44
2023/03/23 02:35:19;;;;;;;6.80;3.60;;;;;;;11.46;100.00;100163.06;5076731;28;20479;-43
2023/03/23 02:38:03;;;;;;;5.28;3.20;;;;;;;11.51;100.00;100177.72;5074100;28;20025;-45
2023/03/23 02:40:36;;;;;;;4.15;3.08;;;;;;;11.50;100.00;100164.84;5073208;28;20020;-44
2023/03/23 02:43:06;;;;;;;5.30;2.92;;;;;;;11.49;100.00;100166.53;5075942;28;20482;-43
2023/03/23 02:45:35;;;;;;;4.85;3.15;;;;;;;11.60;100.00;100155.53;5075296;28;20028;-43
2023/03/23 02:48:02;;;;;;;;;;;;;;;11.58;100.00;100165.78;5078668;28;20073;-44
2023/03/23 02:50:29;;;;;;;7.35;3.20;;;;;;;11.54;100.00;100164.91;5078880;28;19919;-44
2023/03/23 02:52:58;;;;;;;5.90;3.33;;;;;;;11.56;100.00;100164.91;5075473;28;20139;-46
2023/03/23 02:55:24;;;;;;;11.75;3.60;;;;;;;11.53;100.00;100163.19;5075683;28;20024;-45
2023/03/23 02:57:52;;;;;;;6.05;3.50;;;;;;;11.54;100.00;100156.31;5069912;28;20024;-46
2023/03/23 03:00:18;;;;;;;3.97;2.97;;;;;;;11.54;100.00;100158.88;5077902;28;20032;-46
2023/03/23 03:02:55;;;;;;;7.95;3.60;;;;;;;11.60;100.00;100166.69;5077706;28;20070;-45
2023/03/23 03:05:32;;;;;;;4.97;3.03;;;;;;;11.63;100.00;100161.56;5072917;28;20061;-44
2023/03/23 03:08:06;;;;;;;5.65;3.38;;;;;;;11.59;100.00;100158.91;5071184;28;20497;-44
2023/03/23 03:10:40;;;;;;;5.55;3.50;;;;;;;11.58;100.00;100168.34;5073654;28;20553;-44
2023/03/23 03:13:42;;;;;;;5.45;3.30;;;;;;;11.65;100.00;100172.78;5071669;28;20016;-45
2023/03/23 03:16:20;;;;;;;3.90;3.35;;;;;;;11.70;100.00;100175.38;5075689;28;20550;-45
2023/03/23 03:18:56;;;;;;;4.43;3.33;;;;;;;11.79;100.00;100175.50;5076026;28;20051;-46
2023/03/23 03:21:25;;;;;;;7.18;3.38;;;;;;;11.73;100.00;100171.16;5074277;28;20032;-48
2023/03/23 03:23:53;;;;;;;;;;;;;;;11.75;100.00;100179.75;5075932;28;20024;-48
2023/03/23 03:26:20;;;;;;;4.95;3.10;;;;;;;11.76;99.41;100178.88;5075779;28;19912;-44
2023/03/23 03:28:48;;;;;;;4.68;3.58;;;;;;;11.75;100.00;100173.72;5069361;28;20032;-44
2023/03/23 03:31:17;;;;;;;4.55;3.30;;;;;;;11.73;100.00;100159.97;5077445;28;20491;-45
2023/03/23 03:33:43;;;;;;;3.97;3.10;;;;;;;11.73;99.70;100163.41;5073688;28;20024;-45
2023/03/23 03:36:15;;;;;;;4.28;3.20;;;;;;;11.75;99.80;100172.00;5056568;28;20037;-45
2023/03/23 03:38:46;;;;;;;4.60;3.10;;;;;;;11.73;99.78;100167.69;5069011;28;20046;-44
2023/03/23 03:41:12;;;;;;;7.03;3.20;;;;;;;11.89;97.25;100168.75;5054388;28;20029;-47
2023/03/23 03:43:38;;;;;;;6.70;3.15;;;;;;;11.81;98.57;100169.53;5073710;28;20044;-48
2023/03/23 03:46:03;;;;;;;7.38;3.45;;;;;;;11.83;98.05;100182.47;5076132;28;20032;-48
2023/03/23 03:48:29;;;;;;;4.10;3.13;;;;;;;11.81;98.06;100169.53;5070682;28;20032;-46
2023/03/23 03:50:56;;;;;;;6.05;3.05;;;;;;;11.85;97.49;100175.63;5077198;28;20494;-45
2023/03/23 03:53:23;;;;;;;7.32;3.17;;;;;;;11.86;97.38;100173.91;5078062;28;20043;-44
2023/03/23 03:55:49;;;;;;;7.15;3.17;;;;;;;11.81;97.44;100172.13;5077727;28;20036;-45
2023/03/23 03:58:15;;;;;;;6.10;2.92;;;;;;;11.80;97.11;100179.81;5073571;28;20028;-45
2023/03/23 04:00:41;;;;;;;5.82;2.72;;;;;;;11.81;96.52;100181.56;5072535;28;20115;-46
2023/03/23 04:03:08;;;;;;;6.95;2.63;;;;;;;11.78;96.69;100181.50;5073120;28;20417;-44
2023/03/23 04:05:36;;;;;;;6.00;2.80;;;;;;;11.77;96.73;100184.94;5075781;28;20025;-44
2023/03/23 04:08:03;;;;;;;6.40;2.60;;;;;;;11.87;94.93;100180.78;5077389;28;20055;-43
2023/03/23 04:10:29;;;;;;;7.13;2.30;;;;;;;11.78;95.54;100182.38;5070464;28;20105;-44
2023/03/23 04:12:55;;;;;;;6.85;2.40;;;;;;;11.75;95.55;100174.59;5077944;28;20497;-45
2023/03/23 04:15:22;;;;;;;7.03;2.65;;;;;;;11.78;94.84;100177.22;5069848;28;20021;-44
2023/03/23 04:17:47;;;;;;;7.07;2.10;;;;;;;11.80;94.28;100172.06;5077104;28;20032;-45
2023/03/23 04:20:19;;;;;;;7.85;2.38;;;;;;;11.76;94.77;100183.19;5072634;28;20043;-45
2023/03/23 04:22:48;;;;;;;5.22;2.03;;;;;;;11.73;94.59;100180.59;5073134;28;20383;-44
2023/03/23 04:25:15;;;;;;;7.13;1.83;;;;;;;11.70;94.38;100183.97;5073328;28;20028;-43
2023/03/23 04:27:45;;;;;;;6.60;2.30;;;;;;;11.71;94.01;100183.16;5076622;28;20087;-45
2023/03/23 04:30:12;;;;;;;5.32;2.30;;;;;;;11.79;92.64;100183.22;5082750;28;20031;-44
2023/03/23 04:32:41;;;;;;;4.55;1.73;;;;;;;11.72;93.37;100184.88;5082211;28;20028;-44
2023/03/23 04:35:11;;;;;;;8.55;1.88;;;;;;;11.78;92.62;100189.25;5056356;28;20348;-44
2023/03/23 04:37:37;;;;;;;10.75;1.98;;;;;;;11.78;92.64;100200.41;5072576;28;20119;-44
2023/03/23 04:40:09;;;;;;;9.70;2.08;;;;;;;11.82;92.34;100203.91;5076433;28;20032;-47
2023/03/23 04:42:34;;;;;;;7.70;2.00;;;;;;;11.77;92.81;100211.56;5073008;28;20055;-46
2023/03/23 04:45:02;;;;;;;7.82;1.70;;;;;;;11.82;91.65;100207.34;5070161;28;20025;-43
2023/03/23 04:47:30;;;;;;;8.68;1.80;;;;;;;11.76;92.44;100216.66;5070707;28;20104;-44
2023/03/23 04:49:57;;;;;;;7.80;2.42;;;;;;;11.78;92.35;100209.84;5071869;28;20056;-48
2023/03/23 04:52:25;;;;;;;6.13;1.80;;;;;;;11.76;92.43;100214.94;5070438;28;20104;-51
2023/03/23 04:54:51;;;;;;;4.30;1.47;;;;;;;11.75;92.15;100210.66;5069534;28;20032;-52
2023/03/23 04:57:17;;;;;;;7.53;1.58;;;;;;;11.79;92.07;100209.00;5079116;28;20503;-45
2023/03/23 04:59:43;;;;;;;8.02;1.67;;;;;;;11.71;93.43;100205.44;5081944;28;20709;-45
2023/03/23 05:02:12;;;;;;;6.28;1.77;;;;;;;11.65;94.10;100206.25;5084229;28;20028;-47
2023/03/23 05:04:40;;;;;;;6.95;2.30;;;;;;;11.62;94.02;100207.91;5079498;28;20027;-44
2023/03/23 05:07:06;;;;;;;6.63;1.70;;;;;;;11.57;94.02;100212.13;5078636;28;20032;-47
2023/03/23 05:09:32;;;;;;;6.40;1.52;;;;;;;11.62;92.95;100201.03;5080358;28;20391;-45
2023/03/23 05:11:59;;;;;;;10.57;1.75;;;;;;;11.63;92.96;100207.91;5072970;28;20031;-48
2023/03/23 05:14:25;;;;;;;8.32;1.83;;;;;;;11.59;93.53;100205.28;5081940;28;20054;-49
2023/03/23 05:16:51;;;;;;;10.27;1.50;;;;;;;11.63;93.29;100202.75;5060867;28;20484;-46
2023/03/23 05:19:17;;;;;;;6.10;1.85;;;;;;;11.53;94.16;100212.09;5074951;28;20150;-47
2023/03/23 05:21:44;;;;;;;5.95;1.60;;;;;;;11.55;93.29;100214.69;5076238;28;20129;-47
2023/03/23 05:24:10;;;;;;;5.55;1.50;;;;;;;11.58;93.66;100216.41;5072260;28;20035;-47
2023/03/23 05:26:35;;;;;;;5.97;1.30;;;;;;;11.55;93.81;100217.25;5076833;28;20040;-45
2023/03/23 05:29:00;;;;;;;6.18;1.55;;;;;;;11.54;93.95;100208.66;5079086;28;20382;-44
2023/03/23 05:31:26;;;;;;;7.88;1.67;;;;;;;11.54;93.38;100210.38;5077044;28;20376;-51
2023/03/23 05:33:52;;;;;;;6.10;1.40;;;;;;;11.55;93.56;100214.69;5082190;28;20019;-53
2023/03/23 05:36:17;;;;;;;8.52;1.55;;;;;;;11.53;93.78;100209.53;5078948;28;20520;-52
2023/03/23 05:38:45;;;;;;;6.15;1.73;;;;;;;11.60;92.76;100217.31;5080190;28;20047;-52
2023/03/23 05:41:19;;;;;;;6.88;1.30;;;;;;;11.59;93.37;100216.47;5073983;28;20138;-51
2023/03/23 05:43:44;;;;;;;5.15;1.42;;;;;;;11.54;93.77;100216.41;5060518;28;20406;-48
2023/03/23 05:46:10;;;;;;;6.13;1.40;;;;;;;11.61;92.93;100214.75;5061425;28;20024;-51
2023/03/23 05:48:36;;;;;;;2.30;1.00;;;;;;;11.62;92.68;100224.22;5059915;28;20450;-52
2023/03/23 05:51:02;;;;;;;6.15;1.20;;;;;;;11.61;92.41;100219.06;5079345;28;20028;-50
2023/03/23 05:53:29;;;;;;;5.78;1.33;;;;;;;11.61;92.85;100214.75;5040239;28;20036;-52
2023/03/23 05:55:58;;;;;;;5.97;1.73;;;;;;;11.54;93.87;100223.25;5078586;28;20104;-52
2023/03/23 05:58:24;;;;;;;7.40;1.25;;;;;;;11.53;93.55;100229.25;5075416;28;20024;-52
2023/03/23 06:00:49;;;;;;;5.97;1.77;;;;;;;11.54;93.95;100223.25;5073145;28;20028;-53
2023/03/23 06:03:15;;;;;;;6.40;1.40;;;;;;;11.51;94.34;100229.22;5076538;28;20029;-53
2023/03/23 06:05:44;;;;;;;8.75;1.75;;;;;;;11.44;95.09;100223.97;5076659;28;20046;-51
2023/03/23 06:08:09;;;;;;;5.75;1.63;;;;;;;11.42;95.12;100217.94;5072184;28;20025;-52
2023/03/23 06:10:36;;;;;;;6.38;1.52;;;;;;;11.42;94.57;100235.94;5075351;28;20032;-54
2023/03/23 06:13:02;;;;;;;7.88;1.77;;;;;;;11.44;94.54;100229.97;5075448;28;20024;-50
2023/03/23 06:15:31;;;;;;;9.07;1.85;;;;;;;11.45;94.60;100235.97;5059730;28;20471;-53
2023/03/23 06:17:58;;;;;;;15.55;2.20;;;;;;;11.42;95.12;100235.94;5076550;28;20059;-49
2023/03/23 06:20:24;;;;;;;7.05;1.65;;;;;;;11.50;94.83;100252.38;5076611;28;20024;-50
2023/03/23 06:22:51;;;;;;;7.95;1.52;;;;;;;11.48;94.14;100254.06;5070826;28;20085;-49
2023/03/23 06:25:17;;;;;;;9.82;1.75;;;;;;;11.53;93.30;100255.88;5076076;28;20058;-48
2023/03/23 06:27:43;;;;;;;7.72;1.98;;;;;;;11.52;93.69;100263.53;5074399;28;20041;-49
2023/03/23 06:30:10;;;;;;;7.93;1.83;;;;;;;11.54;93.89;100272.19;5072312;28;20024;-51
2023/03/23 06:32:37;;;;;;;10.95;2.33;;;;;;;11.52;93.43;100272.13;5072027;28;20137;-49
2023/03/23 06:35:03;;;;;;;7.00;1.80;;;;;;;11.53;93.51;100273.03;5072076;28;20418;-50
2023/03/23 06:37:28;;;;;;;12.77;1.92;;;;;;;11.55;93.71;100282.50;5071706;28;20032;-48
2023/03/23 06:39:54;;;;;;;10.25;2.58;;;;;;;11.54;93.90;100274.75;5078239;28;20077;-48
2023/03/23 06:42:19;;;;;;;8.65;1.77;;;;;;;11.58;93.14;100276.50;5075372;28;20511;-51
2023/03/23 06:44:45;;;;;;;9.48;1.95;;;;;;;11.57;94.07;100287.66;5058278;28;20035;-49
2023/03/23 06:47:10;;;;;;;8.13;2.05;;;;;;;11.53;94.20;100281.63;5074185;28;20056;-50
2023/03/23 06:49:36;;;;;;;11.10;2.00;;;;;;;11.49;94.94;100296.97;5069036;28;20043;-49
2023/03/23 06:52:03;;;;;;;12.43;2.00;;;;;;;11.43;96.24;100296.88;5078318;28;20528;-49
2023/03/23 06:54:28;;;;;;;10.15;2.00;;;;;;;11.37;97.21;100301.94;5071463;28;20532;-48
2023/03/23 06:56:54;;;;;;;8.02;1.60;;;;;;;11.38;96.70;100299.38;5072119;28;20024;-50
2023/03/23 06:59:19;;;;;;;8.52;1.95;;;;;;;11.32;96.89;100309.59;5071562;28;20082;-50
2023/03/23 07:01:46;;;;;;;9.70;1.90;;;;;;;11.28;97.25;100311.25;5072836;28;20467;-48
2023/03/23 07:04:12;;;;;;;9.38;2.10;;;;;;;11.19;99.72;100323.09;5073357;28;20032;-51
2023/03/23 07:06:37;;;;;;;7.85;1.80;;;;;;;11.17;100.00;100317.06;5069633;28;20399;-48
2023/03/23 07:09:03;;;;;;;7.22;2.15;;;;;;;11.02;100.00;100320.22;5071880;28;20115;-49
2023/03/23 07:11:28;;;;;;;10.05;2.00;;;;;;;10.89;100.00;100323.44;5069749;28;20027;-51
2023/03/23 07:13:54;;;;;;;6.47;2.13;;;;;;;10.81;100.00;100309.56;5072188;28;20028;-48
2023/03/23 07:16:19;;;;;;;8.50;2.00;;;;;;;10.68;100.00;100319.63;5082353;28;20032;-48
2023/03/23 07:18:45;;;;;;;12.23;2.10;;;;;;;10.60;100.00;100321.16;5062120;28;20052;-48
2023/03/23 07:21:10;;;;;;;7.65;1.92;;;;;;;10.55;100.00;100324.50;5078016;28;20057;-48
2023/03/23 07:23:35;;;;;;;9.93;2.28;;;;;;;10.48;100.00;100324.38;5052366;28;20028;-50
2023/03/23 07:26:03;;;;;;;8.38;1.70;;;;;;;10.48;100.00;100326.06;5072427;28;20028;-47
2023/03/23 07:28:29;;;;;;;7.72;1.73;;;;;;;10.47;100.00;100319.19;5076183;28;20394;-48
2023/03/23 07:30:54;;;;;;;5.55;2.10;;;;;;;10.47;100.00;100316.63;5072520;28;20107;-51
2023/03/23 07:33:21;;;;;;;8.52;1.75;;;;;;;10.50;100.00;100326.13;5056441;28;20598;-49
2023/03/23 07:35:47;;;;;;;8.57;1.77;;;;;;;10.50;100.00;100332.13;5070036;28;20127;-49
2023/03/23 07:38:13;;;;;;;6.65;2.05;;;;;;;10.46;100.00;100323.47;5072241;28;20119;-49
2023/03/23 07:40:39;;;;;;;5.93;1.40;;;;;;;10.43;100.00;100326.00;5075883;28;20039;-51
2023/03/23 07:43:05;;;;;;;3.55;1.02;;;;;;;10.39;100.00;100337.06;5077336;28;20040;-51
2023/03/23 07:45:31;;;;;;;2.85;1.10;;;;;;;10.32;100.00;100344.63;5077171;28;20031;-50
2023/03/23 07:47:57;;;;;;;3.97;0.90;;;;;;;10.11;100.00;100340.69;5069782;28;20032;-49
2023/03/23 07:50:24;;;;;;;3.60;1.10;;;;;;;9.99;100.00;100347.28;5043905;28;20123;-51
2023/03/23 07:52:58;;;;;;;4.05;1.13;;;;;;;9.88;100.00;100352.16;5071534;28;20106;-49
2023/03/23 07:55:25;;;;;;;3.28;0.95;;;;;;;9.75;100.00;100358.72;5072632;28;20056;-52
2023/03/23 07:57:53;;;;;;;3.38;0.93;;;;;;;9.68;100.00;100365.41;5069063;28;20091;-51
2023/03/23 08:00:23;;;;;;;7.15;0.90;;;;;;;9.64;100.00;100363.59;5067842;28;20031;-51
2023/03/23 08:02:57;;;;;;;5.13;0.80;;;;;;;9.62;100.00;100365.28;5068776;28;20032;-52
2023/03/23 08:05:25;;;;;;;1.92;0.88;;;;;;;9.55;100.00;100368.53;5068548;28;20082;-51
2023/03/23 08:07:51;;;;;;;2.47;1.20;;;;;;;9.50;100.00;100357.28;5068100;28;20032;-50
2023/03/23 08:10:17;;;;;;;3.10;1.70;;;;;;;9.47;100.00;100376.88;5077362;28;20032;-51
2023/03/23 08:12:45;;;;;;;5.40;2.17;;;;;;;9.42;100.00;100378.47;5070407;28;20112;-50
2023/03/23 08:15:12;;;;;;;6.78;2.67;;;;;;;9.46;100.00;100385.38;5073886;28;20048;-50
2023/03/23 08:17:38;;;;;;;4.10;1.67;;;;;;;9.52;100.00;100391.53;5051966;28;20036;-52
2023/03/23 08:20:10;;;;;;;4.97;2.55;;;;;;;9.58;100.00;100394.25;5068301;28;20059;-49
2023/03/23 08:22:38;;;;;;;3.40;1.67;;;;;;;9.66;100.00;100390.19;5069293;28;20116;-52
2023/03/23 08:25:05;;;;;;;5.55;1.70;;;;;;;9.78;100.00;100383.63;5073289;28;20102;-50
2023/03/23 08:27:32;;;;;;;2.70;1.65;;;;;;;9.85;100.00;100383.78;5069260;28;20075;-50
2023/03/23 08:29:57;;;;;;;6.20;1.50;;;;;;;9.88;100.00;100383.84;5070494;28;20028;-51
2023/03/23 08:32:23;;;;;;;3.30;1.45;;;;;;;9.92;100.00;100383.09;5069158;28;20361;-52
2023/03/23 08:34:49;;;;;;;5.22;1.10;;;;;;;9.94;100.00;100389.13;5055256;28;20141;-50
2023/03/23 08:37:15;;;;;;;3.05;0.90;;;;;;;9.94;100.00;100383.13;5058216;28;20367;-51
2023/03/23 08:39:40;;;;;;;3.67;1.35;;;;;;;9.94;100.00;100378.84;5075506;28;20092;-51
2023/03/23 08:42:06;;;;;;;5.85;1.13;;;;;;;9.99;100.00;100380.66;5075665;28;20403;-51
2023/03/23 08:44:31;;;;;;;3.20;1.35;;;;;;;10.03;100.00;100375.63;5071699;28;20073;-53
2023/03/23 08:46:57;;;;;;;3.63;1.00;;;;;;;10.13;100.00;100379.25;5078490;28;20036;-48
2023/03/23 08:49:23;;;;;;;3.63;0.98;;;;;;;10.16;100.00;100380.22;5077384;28;20032;-51
2023/03/23 08:51:49;;;;;;;3.78;0.85;;;;;;;10.20;100.00;100392.31;5077124;28;20028;-52
2023/03/23 08:54:14;;;;;;;5.10;1.10;;;;;;;10.17;100.00;100381.94;5073465;28;20028;-50
2023/03/23 08:56:40;;;;;;;5.15;0.93;;;;;;;10.20;100.00;100383.72;5079446;28;20033;-50
2023/03/23 08:59:06;;;;;;;3.10;1.00;;;;;;;10.25;100.00;100388.97;5071943;28;20025;-47
2023/03/23 09:01:32;;;;;;;4.20;1.30;;;;;;;10.29;100.00;100401.94;5071583;28;20028;-47
2023/03/23 09:03:59;;;;;;;2.60;0.82;;;;;;;10.33;100.00;100400.31;5078477;28;20043;-51
2023/03/23 09:06:25;;;;;;;4.47;0.90;;;;;;;10.38;100.00;100398.72;5075253;28;20523;-51
2023/03/23 09:08:50;;;;;;;3.30;1.00;;;;;;;10.44;100.00;100403.97;5078010;28;20119;-51
2023/03/23 09:11:16;;;;;;;4.60;0.90;;;;;;;10.49;100.00;100389.50;5072501;28;20487;-53
2023/03/23 09:13:41;;;;;;;5.60;1.00;;;;;;;10.57;100.00;100380.25;5071268;28;20039;-49
2023/03/23 09:16:08;;;;;;;1.90;0.70;;;;;;;10.78;100.00;100371.22;5055405;28;20025;-49
2023/03/23 09:18:34;;;;;;;2.97;1.10;;;;;;;10.80;100.00;100382.41;5078533;28;20028;-52
2023/03/23 09:21:01;;;;;;;7.13;1.00;;;;;;;10.77;100.00;100390.06;5075733;28;20509;-47
2023/03/23 09:23:27;;;;;;;4.88;1.00;;;;;;;10.69;100.00;100397.63;5076854;28;20033;-45
2023/03/23 09:25:52;;;;;;;8.07;1.35;;;;;;;10.68;100.00;100394.19;5076732;28;20028;-46
2023/03/23 09:28:18;;;;;;;4.38;1.17;;;;;;;10.67;100.00;100395.00;5080301;28;20028;-46
2023/03/23 09:30:45;;;;;;;4.88;1.25;;;;;;;10.75;100.00;100402.91;5077215;28;20036;-45
2023/03/23 09:33:11;;;;;;;6.18;1.27;;;;;;;10.80;100.00;100408.13;5077098;28;20030;-46
2023/03/23 09:35:38;;;;;;;6.88;1.50;;;;;;;10.84;100.00;100395.34;5074104;28;20486;-48
2023/03/23 09:38:04;;;;;;;4.90;1.17;;;;;;;10.95;100.00;100398.13;5074401;28;20102;-45
2023/03/23 09:40:54;;;;;;;7.22;1.48;;;;;;;11.09;100.00;100408.69;5072365;28;20035;-45
2023/03/23 09:43:39;;;;;;;3.20;1.05;;;;;;;11.27;100.00;100401.28;5082381;28;20119;-46
2023/03/23 09:46:32;;;;;;;7.45;1.33;;;;;;;11.44;99.78;100409.31;5073424;28;20032;-47
2023/03/23 09:49:07;;;;;;;5.72;1.27;;;;;;;11.50;98.70;100422.28;5077145;28;20046;-48
2023/03/23 09:51:42;;;;;;;6.32;1.50;;;;;;;11.60;97.16;100418.19;5077841;28;20021;-44
2023/03/23 09:54:17;;;;;;;5.88;1.40;;;;;;;11.72;97.03;100419.25;5075465;28;20036;-48
2023/03/23 09:56:44;;;;;;;6.72;1.50;;;;;;;11.83;96.38;100416.88;5075429;28;20029;-45
2023/03/23 09:59:24;;;;;;;6.97;1.58;;;;;;;11.94;96.51;100423.03;5072735;28;20033;-44
2023/03/23 10:01:57;;;;;;;6.00;1.45;;;;;;;11.99;95.46;100420.53;5071858;28;20032;-45
2023/03/23 10:04:37;;;;;;;6.38;1.77;;;;;;;12.12;94.08;100437.91;5077664;28;20028;-46
2023/03/23 10:07:25;;;;;;;5.95;1.50;;;;;;;12.28;92.45;100442.47;5074126;28;20040;-46
2023/03/23 10:10:01;;;;;;;7.50;1.45;;;;;;;12.34;90.99;100437.41;5074906;28;20094;-48
2023/03/23 10:12:36;;;;;;;5.20;1.60;;;;;;;12.47;91.54;100434.97;5080471;28;20025;-48
2023/03/23 10:15:14;;;;;;;4.60;1.23;;;;;;;12.60;88.94;100437.75;5076388;28;20051;-50
2023/03/23 10:18:07;;;;;;;5.78;1.65;;;;;;;12.77;88.79;100443.13;5072282;28;20094;-51
2023/03/23 10:20:41;;;;;;;4.53;1.27;;;;;;;12.95;86.99;100434.72;5066686;28;20115;-48
2023/03/23 10:23:13;;;;;;;7.45;1.90;;;;;;;13.14;85.62;100428.06;5076439;28;20054;-51
2023/03/23 10:25:46;;;;;;;5.40;1.58;;;;;;;13.35;86.30;100438.66;5078412;28;20060;-50
2023/03/23 10:28:18;;;;;;;4.97;1.73;;;;;;;13.49;86.77;100440.50;5071783;28;20085;-49
2023/03/23 10:30:51;;;;;;;8.35;2.35;;;;;;;13.31;82.73;100449.78;5071414;28;20016;-51
2023/03/23 10:33:38;;;;;;;7.43;1.90;;;;;;;13.27;83.25;100449.72;5056849;28;20493;-51
2023/03/23 10:36:24;;;;;;;4.38;1.80;;;;;;;13.48;83.84;100456.84;5074460;28;20493;-47
2023/03/23 10:39:12;;;;;;;8.80;2.05;;;;;;;13.62;83.23;100437.16;5072894;28;20028;-49
2023/03/23 10:41:38;;;;;;;6.90;2.13;;;;;;;13.92;83.71;100452.06;5072366;28;20028;-47
2023/03/23 10:44:12;;;;;;;5.20;1.67;;;;;;;14.10;80.64;100456.50;5070846;28;20033;-48
2023/03/23 10:46:41;;;;;;;5.40;1.60;;;;;;;14.11;79.65;100455.66;5071426;28;20038;-49
2023/03/23 10:49:12;;;;;;;8.70;2.13;;;;;;;14.04;80.37;100452.16;5077430;28;20024;-48
2023/03/23 10:51:44;;;;;;;5.90;2.17;;;;;;;14.03;80.22;100445.25;5057730;28;20052;-51
2023/03/23 10:54:10;;;;;;;3.65;1.35;;;;;;;14.13;79.77;100444.44;5073789;28;20486;-52
2023/03/23 10:56:37;;;;;;;5.78;1.77;;;;;;;14.16;77.89;100435.88;5081673;28;20074;-54
2023/03/23 10:59:32;;;;;;;5.55;1.60;;;;;;;14.06;79.56;100434.06;5074573;28;20105;-48
2023/03/23 11:02:03;;;;;;;6.72;1.85;;;;;;;13.90;79.41;100439.13;5073379;28;20024;-48
2023/03/23 11:04:30;;;;;;;3.67;1.55;;;;;;;13.84;80.21;100441.66;5071278;28;20043;-44
2023/03/23 11:07:00;;;;;;;5.47;1.80;;;;;;;13.90;79.55;100443.44;5078522;28;20028;-46
2023/03/23 11:09:51;;;;;;;7.38;1.80;;;;;;;14.12;78.08;100444.44;5060243;28;20371;-48
2023/03/23 11:12:18;;;;;;;7.32;1.83;;;;;;;14.34;78.03;100435.97;5074283;28;20031;-46
2023/03/23 11:14:44;;;;;;;6.88;1.63;;;;;;;14.51;77.87;100437.84;5070349;28;20051;-52
2023/03/23 11:17:27;;;;;;;6.35;1.65;;;;;;;14.67;74.71;100430.13;5076796;28;20032;-53
2023/03/23 11:19:56;;;;;;;7.00;1.60;;;;;;;14.56;72.94;100436.13;5073938;28;20038;-51
2023/03/23 11:22:27;;;;;;;5.72;1.80;;;;;;;14.38;73.25;100436.88;5071727;28;20025;-51
2023/03/23 11:25:01;;;;;;;6.47;1.60;;;;;;;14.17;73.67;100445.34;5074462;28;20036;-52
2023/03/23 11:27:28;;;;;;;7.15;2.15;;;;;;;14.06;75.52;100439.22;5073429;28;20537;-52
2023/03/23 11:29:56;;;;;;;6.78;1.77;;;;;;;14.02;75.04;100455.59;5074019;28;20061;-51
2023/03/23 11:32:28;;;;;;;6.55;1.55;;;;;;;14.03;75.04;100465.06;5074279;28;20051;-53